sensor_id;sensor_type;location;lat;lon;timestamp;pressure;altitude;pressure_sealevel;temperature;humidity
63691;BME280;49837;57.280;27.070;2022-12-29T00:00:14;99623.35;;;-0.56;100.0
63691;BME280;49837;57.280;27.070;2022-12-29T00:01:14;99621.44;;;-0.56;100.0
63691;BME280;49837;57.280;27.070;2022-12-29T00:02:15;99620.22;;;-0.57;100.0
63691;BME280;49837;57.280;27.070;2022-12-29T00:03:14;99624.16;;;-0.56;100.0
63691;BME280;49837;57.280;27.070;2022-12-29T00:04:15;99621.28;;;-0.55;100.0
63691;BME280;49837;57.280;27.070;2022-12-29T00:05:15;99618.88;;;-0.51;100.0
63691;BME280;49837;57.280;27.070;2022-12-29T00:06:15;99619.91;;;-0.54;100.0
63691;BME280;49837;57.280;27.070;2022-12-29T00:07:17;99621.72;;;-0.54;100.0
63691;BME280;49837;57.280;27.070;2022-12-29T00:08:16;99617.19;;;-0.58;100.0
63691;BME280;49837;57.280;27.070;2022-12-29T00:09:17;99618.17;;;-0.57;100.0
63691;BME280;49837;57.280;27.070;2022-12-29T00:10:17;99620.31;;;-0.54;100.0
63691;BME280;49837;57.280;27.070;2022-12-29T00:11:23;99622.75;;;-0.56;100.0
63691;BME280;49837;57.280;27.070;2022-12-29T00:12:21;99610.3;;;-0.57;100.0
63691;BME280;49837;57.280;27.070;2022-12-29T00:13:21;99619.39;;;-0.57;100.0
63691;BME280;49837;57.280;27.070;2022-12-29T00:14:22;99620.55;;;-0.54;100.0
63691;BME280;49837;57.280;27.070;2022-12-29T00:15:22;99618.5;;;-0.57;100.0
63691;BME280;49837;57.280;27.070;2022-12-29T00:16:23;99614.19;;;-0.55;100.0
63691;BME280;49837;57.280;27.070;2022-12-29T00:17:23;99616.88;;;-0.53;100.0
63691;BME280;49837;57.280;27.070;2022-12-29T00:18:23;99610.17;;;-0.54;100.0
63691;BME280;49837;57.280;27.070;2022-12-29T00:19:24;99613.52;;;-0.55;100.0
63691;BME280;49837;57.280;27.070;2022-12-29T00:20:24;99614.57;;;-0.57;100.0
63691;BME280;49837;57.280;27.070;2022-12-29T00:21:25;99615.61;;;-0.6;100.0
63691;BME280;49837;57.280;27.070;2022-12-29T00:22:25;99617.0;;;-0.58;100.0
63691;BME280;49837;57.280;27.070;2022-12-29T00:23:25;99614.66;;;-0.57;100.0
63691;BME280;49837;57.280;27.070;2022-12-29T00:24:25;99617.2;;;-0.55;100.0
63691;BME280;49837;57.280;27.070;2022-12-29T00:25:26;99618.17;;;-0.57;100.0
63691;BME280;49837;57.280;27.070;2022-12-29T00:26:26;99616.38;;;-0.56;100.0
63691;BME280;49837;57.280;27.070;2022-12-29T00:27:27;99616.78;;;-0.54;100.0
63691;BME280;49837;57.280;27.070;2022-12-29T00:28:27;99617.2;;;-0.55;100.0
63691;BME280;49837;57.280;27.070;2022-12-29T00:29:27;99614.65;;;-0.57;100.0
63691;BME280;49837;57.280;27.070;2022-12-29T00:30:27;99619.95;;;-0.58;100.0
63691;BME280;49837;57.280;27.070;2022-12-29T00:31:28;99618.24;;;-0.58;100.0
63691;BME280;49837;57.280;27.070;2022-12-29T00:32:28;99620.14;;;-0.55;100.0
63691;BME280;49837;57.280;27.070;2022-12-29T00:33:30;99616.27;;;-0.59;100.0
63691;BME280;49837;57.280;27.070;2022-12-29T00:34:29;99620.45;;;-0.57;100.0
63691;BME280;49837;57.280;27.070;2022-12-29T00:35:39;99617.27;;;-0.59;100.0
63691;BME280;49837;57.280;27.070;2022-12-29T00:36:37;99614.7;;;-0.6;100.0
63691;BME280;49837;57.280;27.070;2022-12-29T00:38:39;99619.71;;;-0.59;100.0
63691;BME280;49837;57.280;27.070;2022-12-29T00:39:38;99619.89;;;-0.56;100.0
63691;BME280;49837;57.280;27.070;2022-12-29T00:40:38;99618.69;;;-0.54;100.0
63691;BME280;49837;57.280;27.070;2022-12-29T00:41:39;99618.94;;;-0.55;100.0
63691;BME280;49837;57.280;27.070;2022-12-29T00:42:39;99614.98;;;-0.57;100.0
63691;BME280;49837;57.280;27.070;2022-12-29T00:43:39;99610.97;;;-0.56;100.0
63691;BME280;49837;57.280;27.070;2022-12-29T00:44:40;99609.51;;;-0.55;100.0
63691;BME280;49837;57.280;27.070;2022-12-29T00:45:41;99608.85;;;-0.52;100.0
63691;BME280;49837;57.280;27.070;2022-12-29T00:46:42;99610.02;;;-0.53;100.0
63691;BME280;49837;57.280;27.070;2022-12-29T00:47:41;99617.95;;;-0.54;100.0
63691;BME280;49837;57.280;27.070;2022-12-29T00:48:41;99612.79;;;-0.52;100.0
63691;BME280;49837;57.280;27.070;2022-12-29T00:49:41;99611.72;;;-0.55;100.0
63691;BME280;49837;57.280;27.070;2022-12-29T00:50:42;99614.17;;;-0.56;100.0
63691;BME280;49837;57.280;27.070;2022-12-29T00:51:42;99614.02;;;-0.56;100.0
63691;BME280;49837;57.280;27.070;2022-12-29T00:52:42;99615.31;;;-0.57;100.0
63691;BME280;49837;57.280;27.070;2022-12-29T00:53:43;99616.12;;;-0.56;100.0
63691;BME280;49837;57.280;27.070;2022-12-29T00:54:43;99614.23;;;-0.59;100.0
63691;BME280;49837;57.280;27.070;2022-12-29T00:55:44;99614.55;;;-0.58;100.0
63691;BME280;49837;57.280;27.070;2022-12-29T00:56:49;99615.52;;;-0.61;100.0
63691;BME280;49837;57.280;27.070;2022-12-29T00:57:46;99615.59;;;-0.62;100.0
63691;BME280;49837;57.280;27.070;2022-12-29T00:58:46;99613.48;;;-0.6;100.0
63691;BME280;49837;57.280;27.070;2022-12-29T00:59:47;99612.7;;;-0.57;100.0
63691;BME280;49837;57.280;27.070;2022-12-29T01:00:47;99614.74;;;-0.56;100.0
63691;BME280;49837;57.280;27.070;2022-12-29T01:01:48;99608.59;;;-0.58;100.0
63691;BME280;49837;57.280;27.070;2022-12-29T01:02:48;99610.66;;;-0.55;100.0
63691;BME280;49837;57.280;27.070;2022-12-29T01:03:48;99605.66;;;-0.55;100.0
63691;BME280;49837;57.280;27.070;2022-12-29T01:04:49;99604.92;;;-0.55;100.0
63691;BME280;49837;57.280;27.070;2022-12-29T01:05:49;99599.67;;;-0.55;100.0
63691;BME280;49837;57.280;27.070;2022-12-29T01:06:50;99602.11;;;-0.58;100.0
63691;BME280;49837;57.280;27.070;2022-12-29T01:07:50;99608.98;;;-0.59;100.0
63691;BME280;49837;57.280;27.070;2022-12-29T01:08:51;99606.62;;;-0.57;100.0
63691;BME280;49837;57.280;27.070;2022-12-29T01:09:50;99610.45;;;-0.6;100.0
63691;BME280;49837;57.280;27.070;2022-12-29T01:11:54;99610.94;;;-0.61;100.0
63691;BME280;49837;57.280;27.070;2022-12-29T01:12:55;99606.59;;;-0.61;100.0
63691;BME280;49837;57.280;27.070;2022-12-29T01:13:55;99607.91;;;-0.61;100.0
63691;BME280;49837;57.280;27.070;2022-12-29T01:14:55;99603.98;;;-0.59;100.0
63691;BME280;49837;57.280;27.070;2022-12-29T01:15:56;99603.03;;;-0.57;100.0
63691;BME280;49837;57.280;27.070;2022-12-29T01:16:56;99598.98;;;-0.58;100.0
63691;BME280;49837;57.280;27.070;2022-12-29T01:17:56;99598.66;;;-0.59;100.0
63691;BME280;49837;57.280;27.070;2022-12-29T01:18:57;99601.86;;;-0.59;100.0
63691;BME280;49837;57.280;27.070;2022-12-29T01:19:57;99595.41;;;-0.56;100.0
63691;BME280;49837;57.280;27.070;2022-12-29T01:21:01;99593.79;;;-0.54;100.0
63691;BME280;49837;57.280;27.070;2022-12-29T01:22:00;99594.39;;;-0.58;100.0
63691;BME280;49837;57.280;27.070;2022-12-29T01:23:00;99593.77;;;-0.57;100.0
63691;BME280;49837;57.280;27.070;2022-12-29T01:24:00;99594.43;;;-0.56;100.0
63691;BME280;49837;57.280;27.070;2022-12-29T01:25:00;99592.47;;;-0.55;100.0
63691;BME280;49837;57.280;27.070;2022-12-29T01:26:15;99593.42;;;-0.57;100.0
63691;BME280;49837;57.280;27.070;2022-12-29T01:27:03;99588.59;;;-0.59;100.0
63691;BME280;49837;57.280;27.070;2022-12-29T01:28:03;99591.07;;;-0.57;100.0
63691;BME280;49837;57.280;27.070;2022-12-29T01:29:03;99590.98;;;-0.55;100.0
63691;BME280;49837;57.280;27.070;2022-12-29T01:30:05;99591.17;;;-0.54;100.0
63691;BME280;49837;57.280;27.070;2022-12-29T01:31:04;99591.55;;;-0.54;100.0
63691;BME280;49837;57.280;27.070;2022-12-29T01:32:05;99592.94;;;-0.55;100.0
63691;BME280;49837;57.280;27.070;2022-12-29T01:33:05;99594.17;;;-0.58;100.0
63691;BME280;49837;57.280;27.070;2022-12-29T01:34:05;99588.54;;;-0.55;100.0
63691;BME280;49837;57.280;27.070;2022-12-29T01:35:06;99595.09;;;-0.55;100.0
63691;BME280;49837;57.280;27.070;2022-12-29T01:36:08;99594.34;;;-0.56;100.0
63691;BME280;49837;57.280;27.070;2022-12-29T01:37:07;99592.55;;;-0.55;100.0
63691;BME280;49837;57.280;27.070;2022-12-29T01:38:07;99591.64;;;-0.54;100.0
63691;BME280;49837;57.280;27.070;2022-12-29T01:39:07;99594.23;;;-0.57;100.0
63691;BME280;49837;57.280;27.070;2022-12-29T01:40:08;99595.98;;;-0.58;100.0
63691;BME280;49837;57.280;27.070;2022-12-29T01:41:09;99592.05;;;-0.54;100.0
63691;BME280;49837;57.280;27.070;2022-12-29T01:43:14;99588.52;;;-0.55;100.0
63691;BME280;49837;57.280;27.070;2022-12-29T01:45:18;99589.69;;;-0.54;100.0
63691;BME280;49837;57.280;27.070;2022-12-29T01:48:25;99587.2;;;-0.59;100.0
63691;BME280;49837;57.280;27.070;2022-12-29T01:49:27;99587.51;;;-0.62;100.0
63691;BME280;49837;57.280;27.070;2022-12-29T01:50:32;99586.88;;;-0.59;100.0
63691;BME280;49837;57.280;27.070;2022-12-29T01:51:31;99581.05;;;-0.6;100.0
63691;BME280;49837;57.280;27.070;2022-12-29T01:52:32;99583.52;;;-0.59;100.0
63691;BME280;49837;57.280;27.070;2022-12-29T01:53:32;99580.33;;;-0.58;100.0
63691;BME280;49837;57.280;27.070;2022-12-29T01:54:41;99580.1;;;-0.56;100.0
63691;BME280;49837;57.280;27.070;2022-12-29T01:55:41;99583.2;;;-0.54;100.0
63691;BME280;49837;57.280;27.070;2022-12-29T01:56:40;99583.03;;;-0.57;100.0
63691;BME280;49837;57.280;27.070;2022-12-29T01:57:42;99584.5;;;-0.58;100.0
63691;BME280;49837;57.280;27.070;2022-12-29T01:58:43;99586.55;;;-0.55;100.0
63691;BME280;49837;57.280;27.070;2022-12-29T01:59:48;99582.62;;;-0.57;100.0
63691;BME280;49837;57.280;27.070;2022-12-29T02:00:43;99580.6;;;-0.53;100.0
63691;BME280;49837;57.280;27.070;2022-12-29T02:01:43;99576.26;;;-0.51;100.0
63691;BME280;49837;57.280;27.070;2022-12-29T02:02:49;99574.12;;;-0.55;100.0
63691;BME280;49837;57.280;27.070;2022-12-29T02:03:49;99570.42;;;-0.56;100.0
63691;BME280;49837;57.280;27.070;2022-12-29T02:04:48;99571.91;;;-0.54;100.0
63691;BME280;49837;57.280;27.070;2022-12-29T02:05:54;99570.69;;;-0.52;100.0
63691;BME280;49837;57.280;27.070;2022-12-29T02:06:57;99570.44;;;-0.51;100.0
63691;BME280;49837;57.280;27.070;2022-12-29T02:07:57;99569.55;;;-0.53;100.0
63691;BME280;49837;57.280;27.070;2022-12-29T02:08:57;99568.39;;;-0.55;100.0
63691;BME280;49837;57.280;27.070;2022-12-29T02:09:58;99572.08;;;-0.55;100.0
63691;BME280;49837;57.280;27.070;2022-12-29T02:10:59;99571.42;;;-0.53;100.0
63691;BME280;49837;57.280;27.070;2022-12-29T02:11:58;99570.88;;;-0.5;100.0
63691;BME280;49837;57.280;27.070;2022-12-29T02:12:58;99568.66;;;-0.49;100.0
63691;BME280;49837;57.280;27.070;2022-12-29T02:13:58;99565.88;;;-0.48;100.0
63691;BME280;49837;57.280;27.070;2022-12-29T02:15:01;99565.47;;;-0.48;100.0
63691;BME280;49837;57.280;27.070;2022-12-29T02:36:10;99555.14;;;-0.52;100.0
63691;BME280;49837;57.280;27.070;2022-12-29T02:43:40;99565.36;;;-0.54;100.0
63691;BME280;49837;57.280;27.070;2022-12-29T02:45:50;99558.97;;;-0.54;100.0
63691;BME280;49837;57.280;27.070;2022-12-29T02:49:43;99557.86;;;-0.46;100.0
63691;BME280;49837;57.280;27.070;2022-12-29T02:53:47;99556.03;;;-0.49;100.0
63691;BME280;49837;57.280;27.070;2022-12-29T02:54:49;99552.75;;;-0.49;100.0
63691;BME280;49837;57.280;27.070;2022-12-29T02:55:49;99549.96;;;-0.5;100.0
63691;BME280;49837;57.280;27.070;2022-12-29T02:56:48;99552.35;;;-0.52;100.0
63691;BME280;49837;57.280;27.070;2022-12-29T02:57:48;99553.15;;;-0.52;100.0
63691;BME280;49837;57.280;27.070;2022-12-29T02:58:48;99550.3;;;-0.5;100.0
63691;BME280;49837;57.280;27.070;2022-12-29T03:00:00;99551.28;;;-0.5;100.0
63691;BME280;49837;57.280;27.070;2022-12-29T03:11:29;99552.84;;;-0.5;100.0
63691;BME280;49837;57.280;27.070;2022-12-29T03:15:42;99550.94;;;-0.55;100.0
63691;BME280;49837;57.280;27.070;2022-12-29T03:16:44;99556.44;;;-0.51;100.0
63691;BME280;49837;57.280;27.070;2022-12-29T03:19:49;99553.08;;;-0.53;100.0
63691;BME280;49837;57.280;27.070;2022-12-29T03:20:53;99555.61;;;-0.51;100.0
63691;BME280;49837;57.280;27.070;2022-12-29T03:22:04;99550.37;;;-0.55;100.0
63691;BME280;49837;57.280;27.070;2022-12-29T03:22:49;99554.78;;;-0.54;100.0
63691;BME280;49837;57.280;27.070;2022-12-29T03:23:49;99551.59;;;-0.56;100.0
63691;BME280;49837;57.280;27.070;2022-12-29T03:24:51;99554.69;;;-0.53;100.0
63691;BME280;49837;57.280;27.070;2022-12-29T03:25:53;99551.43;;;-0.54;100.0
63691;BME280;49837;57.280;27.070;2022-12-29T03:26:56;99551.92;;;-0.53;100.0
63691;BME280;49837;57.280;27.070;2022-12-29T03:27:57;99554.05;;;-0.52;100.0
63691;BME280;49837;57.280;27.070;2022-12-29T03:28:56;99554.69;;;-0.53;100.0
63691;BME280;49837;57.280;27.070;2022-12-29T03:30:59;99554.53;;;-0.55;100.0
63691;BME280;49837;57.280;27.070;2022-12-29T03:32:00;99550.86;;;-0.51;100.0
63691;BME280;49837;57.280;27.070;2022-12-29T03:33:03;99554.25;;;-0.48;100.0
63691;BME280;49837;57.280;27.070;2022-12-29T03:34:03;99550.31;;;-0.48;100.0
63691;BME280;49837;57.280;27.070;2022-12-29T03:35:04;99552.76;;;-0.48;100.0
63691;BME280;49837;57.280;27.070;2022-12-29T03:36:06;99551.62;;;-0.48;100.0
63691;BME280;49837;57.280;27.070;2022-12-29T03:39:13;99551.44;;;-0.5;100.0
63691;BME280;49837;57.280;27.070;2022-12-29T03:40:12;99549.88;;;-0.51;100.0
63691;BME280;49837;57.280;27.070;2022-12-29T03:41:17;99551.85;;;-0.5;100.0
63691;BME280;49837;57.280;27.070;2022-12-29T03:42:20;99552.11;;;-0.48;100.0
63691;BME280;49837;57.280;27.070;2022-12-29T03:43:18;99550.74;;;-0.47;100.0
63691;BME280;49837;57.280;27.070;2022-12-29T03:44:18;99551.8;;;-0.45;100.0
63691;BME280;49837;57.280;27.070;2022-12-29T03:45:19;99551.14;;;-0.46;100.0
63691;BME280;49837;57.280;27.070;2022-12-29T03:46:19;99545.64;;;-0.51;100.0
63691;BME280;49837;57.280;27.070;2022-12-29T03:47:19;99546.95;;;-0.49;100.0
63691;BME280;49837;57.280;27.070;2022-12-29T03:48:20;99546.2;;;-0.5;100.0
63691;BME280;49837;57.280;27.070;2022-12-29T03:49:20;99544.66;;;-0.52;100.0
63691;BME280;49837;57.280;27.070;2022-12-29T03:50:20;99543.25;;;-0.5;100.0
63691;BME280;49837;57.280;27.070;2022-12-29T03:51:21;99537.01;;;-0.52;100.0
63691;BME280;49837;57.280;27.070;2022-12-29T03:52:21;99540.79;;;-0.5;100.0
63691;BME280;49837;57.280;27.070;2022-12-29T03:53:21;99539.17;;;-0.49;100.0
63691;BME280;49837;57.280;27.070;2022-12-29T03:54:22;99539.15;;;-0.5;100.0
63691;BME280;49837;57.280;27.070;2022-12-29T03:55:22;99540.14;;;-0.48;100.0
63691;BME280;49837;57.280;27.070;2022-12-29T03:56:22;99537.87;;;-0.47;100.0
63691;BME280;49837;57.280;27.070;2022-12-29T03:57:23;99539.48;;;-0.5;100.0
63691;BME280;49837;57.280;27.070;2022-12-29T03:58:23;99545.81;;;-0.47;100.0
63691;BME280;49837;57.280;27.070;2022-12-29T03:59:24;99544.33;;;-0.48;100.0
63691;BME280;49837;57.280;27.070;2022-12-29T04:00:24;99543.42;;;-0.49;100.0
63691;BME280;49837;57.280;27.070;2022-12-29T04:01:24;99542.53;;;-0.48;100.0
63691;BME280;49837;57.280;27.070;2022-12-29T04:02:24;99544.91;;;-0.47;100.0
63691;BME280;49837;57.280;27.070;2022-12-29T04:03:25;99539.8;;;-0.5;100.0
63691;BME280;49837;57.280;27.070;2022-12-29T04:04:25;99541.2;;;-0.51;100.0
63691;BME280;49837;57.280;27.070;2022-12-29T04:05:25;99536.38;;;-0.49;100.0
63691;BME280;49837;57.280;27.070;2022-12-29T04:06:26;99537.86;;;-0.49;100.0
63691;BME280;49837;57.280;27.070;2022-12-29T04:07:26;99536.38;;;-0.49;100.0
63691;BME280;49837;57.280;27.070;2022-12-29T04:08:27;99534.55;;;-0.54;100.0
63691;BME280;49837;57.280;27.070;2022-12-29T04:09:27;99536.2;;;-0.55;100.0
63691;BME280;49837;57.280;27.070;2022-12-29T04:10:27;99539.71;;;-0.53;100.0
63691;BME280;49837;57.280;27.070;2022-12-29T04:11:28;99534.23;;;-0.53;100.0
63691;BME280;49837;57.280;27.070;2022-12-29T04:12:29;99536.19;;;-0.51;100.0
63691;BME280;49837;57.280;27.070;2022-12-29T04:13:29;99535.87;;;-0.51;100.0
63691;BME280;49837;57.280;27.070;2022-12-29T04:14:30;99535.3;;;-0.51;100.0
63691;BME280;49837;57.280;27.070;2022-12-29T04:15:30;99538.41;;;-0.51;100.0
63691;BME280;49837;57.280;27.070;2022-12-29T04:16:30;99536.93;;;-0.55;100.0
63691;BME280;49837;57.280;27.070;2022-12-29T04:17:31;99535.2;;;-0.53;100.0
63691;BME280;49837;57.280;27.070;2022-12-29T04:18:31;99534.38;;;-0.56;100.0
63691;BME280;49837;57.280;27.070;2022-12-29T04:19:31;99533.95;;;-0.57;100.0
63691;BME280;49837;57.280;27.070;2022-12-29T04:20:32;99537.82;;;-0.56;100.0
63691;BME280;49837;57.280;27.070;2022-12-29T04:21:32;99534.45;;;-0.55;100.0
63691;BME280;49837;57.280;27.070;2022-12-29T04:22:32;99539.97;;;-0.52;100.0
63691;BME280;49837;57.280;27.070;2022-12-29T04:23:36;99536.69;;;-0.5;100.0
63691;BME280;49837;57.280;27.070;2022-12-29T04:24:34;99536.69;;;-0.5;100.0
63691;BME280;49837;57.280;27.070;2022-12-29T04:25:34;99534.33;;;-0.51;100.0
63691;BME280;49837;57.280;27.070;2022-12-29T04:26:34;99537.34;;;-0.5;100.0
63691;BME280;49837;57.280;27.070;2022-12-29T04:27:35;99539.47;;;-0.52;100.0
63691;BME280;49837;57.280;27.070;2022-12-29T04:28:36;99539.89;;;-0.53;100.0
63691;BME280;49837;57.280;27.070;2022-12-29T04:29:35;99540.79;;;-0.5;100.0
63691;BME280;49837;57.280;27.070;2022-12-29T04:30:36;99534.97;;;-0.51;100.0
63691;BME280;49837;57.280;27.070;2022-12-29T04:31:36;99541.45;;;-0.48;100.0
63691;BME280;49837;57.280;27.070;2022-12-29T04:32:36;99538.34;;;-0.47;100.0
63691;BME280;49837;57.280;27.070;2022-12-29T04:33:37;99539.58;;;-0.47;100.0
63691;BME280;49837;57.280;27.070;2022-12-29T04:34:37;99541.22;;;-0.47;100.0
63691;BME280;49837;57.280;27.070;2022-12-29T04:35:37;99536.97;;;-0.49;100.0
63691;BME280;49837;57.280;27.070;2022-12-29T04:36:38;99539.59;;;-0.49;100.0
63691;BME280;49837;57.280;27.070;2022-12-29T04:37:38;99537.93;;;-0.49;100.0
63691;BME280;49837;57.280;27.070;2022-12-29T04:38:39;99538.91;;;-0.5;100.0
63691;BME280;49837;57.280;27.070;2022-12-29T04:39:39;99539.31;;;-0.54;100.0
63691;BME280;49837;57.280;27.070;2022-12-29T04:40:40;99541.55;;;-0.51;100.0
63691;BME280;49837;57.280;27.070;2022-12-29T04:41:39;99540.41;;;-0.5;100.0
63691;BME280;49837;57.280;27.070;2022-12-29T04:42:40;99536.81;;;-0.48;100.0
63691;BME280;49837;57.280;27.070;2022-12-29T04:43:40;99539.81;;;-0.49;100.0
63691;BME280;49837;57.280;27.070;2022-12-29T04:44:40;99538.45;;;-0.48;100.0
63691;BME280;49837;57.280;27.070;2022-12-29T04:46:44;99534.72;;;-0.54;100.0
63691;BME280;49837;57.280;27.070;2022-12-29T04:47:44;99541.7;;;-0.5;100.0
63691;BME280;49837;57.280;27.070;2022-12-29T04:48:45;99536.39;;;-0.47;100.0
63691;BME280;49837;57.280;27.070;2022-12-29T04:49:45;99530.45;;;-0.52;100.0
63691;BME280;49837;57.280;27.070;2022-12-29T04:50:48;99530.55;;;-0.54;100.0
63691;BME280;49837;57.280;27.070;2022-12-29T04:51:46;99530.73;;;-0.52;100.0
63691;BME280;49837;57.280;27.070;2022-12-29T04:52:46;99533.66;;;-0.51;100.0
63691;BME280;49837;57.280;27.070;2022-12-29T04:53:46;99527.38;;;-0.48;100.0
63691;BME280;49837;57.280;27.070;2022-12-29T04:54:47;99528.34;;;-0.5;100.0
63691;BME280;49837;57.280;27.070;2022-12-29T04:55:51;99527.19;;;-0.53;100.0
63691;BME280;49837;57.280;27.070;2022-12-29T04:56:49;99531.62;;;-0.5;100.0
63691;BME280;49837;57.280;27.070;2022-12-29T04:57:49;99531.36;;;-0.52;100.0
63691;BME280;49837;57.280;27.070;2022-12-29T04:58:49;99528.58;;;-0.51;100.0
63691;BME280;49837;57.280;27.070;2022-12-29T04:59:50;99531.39;;;-0.51;100.0
63691;BME280;49837;57.280;27.070;2022-12-29T05:00:51;99527.42;;;-0.53;100.0
63691;BME280;49837;57.280;27.070;2022-12-29T05:01:50;99529.76;;;-0.46;100.0
63691;BME280;49837;57.280;27.070;2022-12-29T05:02:51;99531.57;;;-0.47;100.0
63691;BME280;49837;57.280;27.070;2022-12-29T05:03:51;99531.7;;;-0.49;100.0
63691;BME280;49837;57.280;27.070;2022-12-29T05:04:51;99531.67;;;-0.54;100.0
63691;BME280;49837;57.280;27.070;2022-12-29T05:05:55;99533.34;;;-0.53;100.0
63691;BME280;49837;57.280;27.070;2022-12-29T05:06:53;99532.69;;;-0.5;100.0
63691;BME280;49837;57.280;27.070;2022-12-29T05:07:53;99531.94;;;-0.5;100.0
63691;BME280;49837;57.280;27.070;2022-12-29T05:08:54;99524.68;;;-0.49;100.0
63691;BME280;49837;57.280;27.070;2022-12-29T05:09:54;99528.28;;;-0.5;100.0
63691;BME280;49837;57.280;27.070;2022-12-29T05:10:54;99525.22;;;-0.51;100.0
63691;BME280;49837;57.280;27.070;2022-12-29T05:11:55;99529.83;;;-0.49;100.0
63691;BME280;49837;57.280;27.070;2022-12-29T05:12:55;99525.19;;;-0.47;100.0
63691;BME280;49837;57.280;27.070;2022-12-29T05:13:55;99528.36;;;-0.48;100.0
63691;BME280;49837;57.280;27.070;2022-12-29T05:14:56;99526.63;;;-0.48;100.0
63691;BME280;49837;57.280;27.070;2022-12-29T05:15:56;99526.4;;;-0.47;100.0
63691;BME280;49837;57.280;27.070;2022-12-29T05:16:56;99524.41;;;-0.48;100.0
63691;BME280;49837;57.280;27.070;2022-12-29T05:17:57;99524.05;;;-0.43;100.0
63691;BME280;49837;57.280;27.070;2022-12-29T05:18:57;99519.99;;;-0.5;100.0
63691;BME280;49837;57.280;27.070;2022-12-29T05:19:57;99524.94;;;-0.45;100.0
63691;BME280;49837;57.280;27.070;2022-12-29T05:20:58;99523.69;;;-0.51;100.0
63691;BME280;49837;57.280;27.070;2022-12-29T05:21:58;99519.09;;;-0.5;100.0
63691;BME280;49837;57.280;27.070;2022-12-29T05:22:58;99520.01;;;-0.47;100.0
63691;BME280;49837;57.280;27.070;2022-12-29T05:23:59;99519.67;;;-0.49;100.0
63691;BME280;49837;57.280;27.070;2022-12-29T05:24:59;99519.73;;;-0.51;100.0
63691;BME280;49837;57.280;27.070;2022-12-29T05:25:59;99517.38;;;-0.47;100.0
63691;BME280;49837;57.280;27.070;2022-12-29T05:27:00;99518.45;;;-0.46;100.0
63691;BME280;49837;57.280;27.070;2022-12-29T05:28:00;99523.94;;;-0.47;100.0
63691;BME280;49837;57.280;27.070;2022-12-29T05:29:00;99519.98;;;-0.48;100.0
63691;BME280;49837;57.280;27.070;2022-12-29T05:30:01;99525.06;;;-0.52;100.0
63691;BME280;49837;57.280;27.070;2022-12-29T05:31:01;99520.98;;;-0.49;100.0
63691;BME280;49837;57.280;27.070;2022-12-29T05:32:01;99520.8;;;-0.49;100.0
63691;BME280;49837;57.280;27.070;2022-12-29T05:33:02;99523.44;;;-0.5;100.0
63691;BME280;49837;57.280;27.070;2022-12-29T05:34:05;99524.2;;;-0.48;100.0
63691;BME280;49837;57.280;27.070;2022-12-29T05:35:03;99521.82;;;-0.45;100.0
63691;BME280;49837;57.280;27.070;2022-12-29T05:36:07;99523.11;;;-0.46;100.0
63691;BME280;49837;57.280;27.070;2022-12-29T05:37:04;99525.75;;;-0.44;100.0
63691;BME280;49837;57.280;27.070;2022-12-29T05:38:05;99522.66;;;-0.41;100.0
63691;BME280;49837;57.280;27.070;2022-12-29T05:39:05;99524.61;;;-0.43;100.0
63691;BME280;49837;57.280;27.070;2022-12-29T05:40:07;99526.23;;;-0.46;100.0
63691;BME280;49837;57.280;27.070;2022-12-29T05:41:06;99523.03;;;-0.48;100.0
63691;BME280;49837;57.280;27.070;2022-12-29T05:42:06;99527.22;;;-0.48;100.0
63691;BME280;49837;57.280;27.070;2022-12-29T05:43:06;99526.2;;;-0.5;100.0
63691;BME280;49837;57.280;27.070;2022-12-29T05:44:07;99524.67;;;-0.5;100.0
63691;BME280;49837;57.280;27.070;2022-12-29T05:45:08;99527.3;;;-0.49;100.0
63691;BME280;49837;57.280;27.070;2022-12-29T05:46:08;99523.94;;;-0.47;100.0
63691;BME280;49837;57.280;27.070;2022-12-29T05:47:08;99521.46;;;-0.49;100.0
63691;BME280;49837;57.280;27.070;2022-12-29T05:48:08;99520.88;;;-0.51;100.0
63691;BME280;49837;57.280;27.070;2022-12-29T05:49:09;99522.77;;;-0.52;100.0
63691;BME280;49837;57.280;27.070;2022-12-29T05:50:09;99526.21;;;-0.52;100.0
63691;BME280;49837;57.280;27.070;2022-12-29T05:51:09;99523.51;;;-0.5;100.0
63691;BME280;49837;57.280;27.070;2022-12-29T05:52:10;99523.91;;;-0.5;100.0
63691;BME280;49837;57.280;27.070;2022-12-29T05:53:10;99525.85;;;-0.43;100.0
63691;BME280;49837;57.280;27.070;2022-12-29T05:54:10;99521.09;;;-0.43;100.0
63691;BME280;49837;57.280;27.070;2022-12-29T05:55:11;99523.76;;;-0.5;100.0
63691;BME280;49837;57.280;27.070;2022-12-29T05:56:11;99522.05;;;-0.5;100.0
63691;BME280;49837;57.280;27.070;2022-12-29T05:57:11;99523.45;;;-0.48;100.0
63691;BME280;49837;57.280;27.070;2022-12-29T05:58:12;99517.86;;;-0.5;100.0
63691;BME280;49837;57.280;27.070;2022-12-29T05:59:12;99519.26;;;-0.51;100.0
63691;BME280;49837;57.280;27.070;2022-12-29T06:00:13;99521.39;;;-0.51;100.0
63691;BME280;49837;57.280;27.070;2022-12-29T06:01:13;99521.88;;;-0.48;100.0
63691;BME280;49837;57.280;27.070;2022-12-29T06:02:13;99521.22;;;-0.52;100.0
63691;BME280;49837;57.280;27.070;2022-12-29T06:03:13;99521.36;;;-0.53;100.0
63691;BME280;49837;57.280;27.070;2022-12-29T06:04:14;99521.28;;;-0.51;100.0
63691;BME280;49837;57.280;27.070;2022-12-29T06:05:14;99524.17;;;-0.49;100.0
63691;BME280;49837;57.280;27.070;2022-12-29T06:06:14;99524.42;;;-0.47;100.0
63691;BME280;49837;57.280;27.070;2022-12-29T06:07:15;99522.78;;;-0.49;100.0
63691;BME280;49837;57.280;27.070;2022-12-29T06:08:15;99523.86;;;-0.48;100.0
63691;BME280;49837;57.280;27.070;2022-12-29T06:09:16;99526.04;;;-0.5;100.0
63691;BME280;49837;57.280;27.070;2022-12-29T06:10:16;99525.64;;;-0.5;100.0
63691;BME280;49837;57.280;27.070;2022-12-29T06:11:16;99524.58;;;-0.5;100.0
63691;BME280;49837;57.280;27.070;2022-12-29T06:12:17;99521.39;;;-0.48;100.0
63691;BME280;49837;57.280;27.070;2022-12-29T06:13:17;99529.49;;;-0.48;100.0
63691;BME280;49837;57.280;27.070;2022-12-29T06:14:17;99523.27;;;-0.49;100.0
63691;BME280;49837;57.280;27.070;2022-12-29T06:15:18;99528.46;;;-0.47;100.0
63691;BME280;49837;57.280;27.070;2022-12-29T06:16:18;99528.46;;;-0.46;100.0
63691;BME280;49837;57.280;27.070;2022-12-29T06:17:18;99527.95;;;-0.47;100.0